Time;durP1;ratioP1;P1;durP2;ratioP2;P2;SDS_P1;SDS_P2;PMS_P1;PMS_P2;Temp;Humidity;BMP_temperature;BMP_pressure;BME280_temperature;BME280_humidity;BME280_pressure;Samples;Min_cycle;Max_cycle;Signal;HPM_P1;HPM_P2
2024/02/25 00:02:24;;;;;;;11.10;10.40;;;3.20;99.90;;;;;;4879990;29;20241;-79
2024/02/25 00:04:51;;;;;;;11.10;10.40;;;3.20;99.90;;;;;;4881609;29;20209;-78
2024/02/25 00:07:17;;;;;;;11.03;10.33;;;3.20;99.90;;;;;;4880547;29;20266;-79
2024/02/25 00:09:46;;;;;;;10.87;10.17;;;3.20;99.90;;;;;;4881045;29;20225;-79
2024/02/25 00:12:12;;;;;;;10.60;9.90;;;3.30;99.90;;;;;;4879959;29;20604;-79
2024/02/25 00:14:39;;;;;;;10.90;10.00;;;3.30;99.90;;;;;;4881172;29;20561;-79
2024/02/25 00:17:06;;;;;;;11.03;10.33;;;3.30;99.90;;;;;;4879849;29;20238;-78
2024/02/25 00:19:33;;;;;;;10.80;9.97;;;3.30;99.90;;;;;;4880993;29;20206;-79
2024/02/25 00:21:59;;;;;;;11.30;10.50;;;3.30;99.90;;;;;;4880905;29;20277;-79
2024/02/25 00:24:26;;;;;;;11.40;10.60;;;3.30;99.90;;;;;;4880153;29;20281;-79
2024/02/25 00:26:54;;;;;;;11.27;10.57;;;3.30;99.90;;;;;;4880822;29;20212;-79
2024/02/25 00:29:21;;;;;;;10.93;10.23;;;3.30;99.90;;;;;;4879555;29;20439;-79
2024/02/25 00:31:48;;;;;;;10.90;10.30;;;3.30;99.90;;;;;;4880913;29;20241;-79
2024/02/25 00:34:15;;;;;;;11.60;10.77;;;3.30;99.90;;;;;;4879632;29;20201;-79
2024/02/25 00:36:41;;;;;;;11.73;10.83;;;3.40;99.90;;;;;;4879707;29;20243;-79
2024/02/25 00:39:08;;;;;;;11.60;10.90;;;3.30;99.90;;;;;;4880492;29;20200;-79
2024/02/25 00:41:35;;;;;;;11.10;10.40;;;3.30;99.90;;;;;;4879866;29;20198;-79
2024/02/25 00:44:03;;;;;;;12.00;11.07;;;3.30;99.90;;;;;;4879307;29;20472;-79
2024/02/25 00:46:30;;;;;;;11.57;10.70;;;3.30;99.90;;;;;;4880939;29;20406;-79
2024/02/25 00:48:59;;;;;;;11.90;11.00;;;3.20;99.90;;;;;;4879086;29;20708;-79
2024/02/25 00:51:26;;;;;;;11.33;10.53;;;3.20;99.90;;;;;;4875749;29;20217;-79
2024/02/25 00:53:53;;;;;;;11.10;10.30;;;3.20;99.90;;;;;;4880418;29;20232;-79
2024/02/25 00:56:20;;;;;;;11.97;11.17;;;3.20;99.90;;;;;;4879169;29;20624;-79
2024/02/25 00:58:47;;;;;;;11.60;10.87;;;3.10;99.90;;;;;;4879848;29;20201;-79
2024/02/25 01:01:15;;;;;;;11.97;11.17;;;3.10;99.90;;;;;;4882124;29;20616;-79
2024/02/25 01:03:42;;;;;;;12.63;11.70;;;3.00;99.90;;;;;;4879566;29;20602;-80
2024/02/25 01:06:09;;;;;;;14.33;13.23;;;2.80;99.90;;;;;;4881012;29;20468;-79
2024/02/25 01:08:39;;;;;;;13.57;12.57;;;2.70;99.90;;;;;;4878514;29;20218;-78
2024/02/25 01:11:06;;;;;;;13.67;12.67;;;2.60;99.90;;;;;;4878646;29;20221;-79
2024/02/25 01:13:33;;;;;;;13.20;12.30;;;2.50;99.90;;;;;;4876030;29;20448;-79
2024/02/25 01:16:02;;;;;;;13.77;12.77;;;2.40;99.90;;;;;;4880647;29;20215;-79
2024/02/25 01:18:31;;;;;;;13.93;12.83;;;2.30;99.90;;;;;;4879107;29;20197;-79
2024/02/25 01:20:58;;;;;;;13.23;12.23;;;2.30;99.90;;;;;;4878933;29;20237;-79
2024/02/25 01:23:25;;;;;;;13.70;12.60;;;2.20;99.90;;;;;;4879824;29;20234;-79
2024/02/25 01:25:52;;;;;;;13.73;12.63;;;2.20;99.90;;;;;;4879876;29;20233;-79
2024/02/25 01:28:19;;;;;;;13.07;11.97;;;2.20;99.90;;;;;;4879881;29;20217;-79
2024/02/25 01:30:47;;;;;;;13.00;12.00;;;2.10;99.90;;;;;;4879858;29;20284;-79
2024/02/25 01:33:14;;;;;;;14.00;12.90;;;2.00;99.90;;;;;;4879205;29;20290;-79
2024/02/25 01:35:42;;;;;;;14.60;13.33;;;2.10;99.90;;;;;;4880238;29;20255;-79
2024/02/25 01:38:09;;;;;;;15.00;13.80;;;2.00;99.90;;;;;;4877745;29;20599;-79
2024/02/25 01:40:37;;;;;;;14.20;12.93;;;2.00;99.90;;;;;;4879837;29;20197;-79
2024/02/25 01:43:08;;;;;;;13.73;12.47;;;1.90;99.90;;;;;;4879967;29;20937;-79
2024/02/25 01:45:35;;;;;;;13.03;11.93;;;1.90;99.90;;;;;;4880145;29;20202;-79
2024/02/25 01:48:03;;;;;;;13.40;12.40;;;1.80;99.90;;;;;;4879566;29;20205;-79
2024/02/25 01:50:29;;;;;;;12.93;12.03;;;1.70;99.90;;;;;;4879576;29;20205;-79
2024/02/25 01:52:59;;;;;;;12.67;11.77;;;1.70;99.90;;;;;;4879562;29;20240;-79
2024/02/25 01:55:26;;;;;;;12.20;11.40;;;1.60;99.90;;;;;;4878397;29;20205;-79
2024/02/25 01:57:54;;;;;;;13.37;12.33;;;1.50;99.90;;;;;;4878203;29;20241;-79
2024/02/25 02:00:22;;;;;;;12.57;11.70;;;1.50;99.90;;;;;;4878108;29;20227;-79
2024/02/25 02:02:49;;;;;;;12.57;11.63;;;1.50;99.90;;;;;;4877612;29;20863;-79
2024/02/25 02:05:16;;;;;;;12.90;11.80;;;1.60;99.90;;;;;;4878149;29;20753;-79
2024/02/25 02:07:42;;;;;;;13.10;12.20;;;1.60;99.90;;;;;;4877991;29;20260;-79
2024/02/25 02:10:11;;;;;;;12.87;11.97;;;1.50;99.90;;;;;;4876836;29;20488;-79
2024/02/25 02:12:41;;;;;;;13.20;12.20;;;1.50;99.90;;;;;;4878169;29;20484;-79
2024/02/25 02:15:09;;;;;;;13.00;12.00;;;1.50;99.90;;;;;;4877585;29;20206;-79
2024/02/25 02:17:39;;;;;;;13.20;12.20;;;1.50;99.90;;;;;;4879332;29;20231;-79
2024/02/25 02:20:15;;;;;;;13.03;12.13;;;1.50;99.90;;;;;;4877867;29;20557;-79
2024/02/25 02:22:44;;;;;;;13.17;12.27;;;1.40;99.90;;;;;;4877457;29;20236;-79
2024/02/25 02:25:12;;;;;;;13.27;12.27;;;1.50;99.90;;;;;;4877531;29;20971;-79
2024/02/25 02:27:40;;;;;;;13.13;12.13;;;1.50;99.90;;;;;;4877683;29;20205;-79
2024/02/25 02:30:08;;;;;;;13.33;12.33;;;1.50;99.90;;;;;;4877404;29;20256;-79
2024/02/25 02:32:35;;;;;;;13.43;12.43;;;1.60;99.90;;;;;;4877339;29;20304;-78
2024/02/25 02:35:03;;;;;;;12.70;11.80;;;1.60;99.90;;;;;;4877653;29;20360;-78
2024/02/25 02:37:30;;;;;;;13.40;12.40;;;1.60;99.90;;;;;;4877597;29;20665;-79
2024/02/25 02:39:58;;;;;;;12.40;11.60;;;1.60;99.90;;;;;;4877206;29;20208;-79
2024/02/25 02:42:25;;;;;;;12.90;12.00;;;1.80;99.90;;;;;;4878771;29;20228;-79
2024/02/25 02:44:52;;;;;;;12.70;11.73;;;1.90;99.90;;;;;;4877294;29;20220;-79
2024/02/25 02:47:20;;;;;;;12.67;11.80;;;2.00;99.90;;;;;;4878352;29;20197;-79
2024/02/25 02:49:47;;;;;;;12.07;11.27;;;2.10;99.90;;;;;;4878611;29;20241;-79
2024/02/25 02:52:14;;;;;;;11.80;11.10;;;2.20;99.90;;;;;;4877364;29;20255;-79
2024/02/25 02:54:41;;;;;;;11.40;10.70;;;2.20;99.90;;;;;;4876948;29;20206;-79
2024/02/25 02:57:09;;;;;;;12.70;11.80;;;2.20;99.90;;;;;;4877254;29;20283;-79
2024/02/25 02:59:36;;;;;;;11.63;10.83;;;2.30;99.90;;;;;;4878594;29;20600;-79
2024/02/25 03:02:03;;;;;;;12.00;11.10;;;2.30;99.90;;;;;;4878264;29;20224;-79
2024/02/25 03:04:31;;;;;;;11.37;10.67;;;2.40;99.90;;;;;;4877033;29;20229;-79
2024/02/25 03:06:58;;;;;;;11.90;11.10;;;2.50;99.90;;;;;;4877176;29;20268;-80
2024/02/25 03:09:24;;;;;;;11.70;10.87;;;2.50;99.90;;;;;;4877324;29;20252;-79
2024/02/25 03:11:52;;;;;;;12.03;11.33;;;2.60;99.90;;;;;;4878491;29;20284;-79
2024/02/25 03:14:20;;;;;;;11.87;11.17;;;2.70;99.90;;;;;;4877247;29;20572;-79
2024/02/25 03:16:47;;;;;;;11.73;11.03;;;2.70;99.90;;;;;;4877067;29;20205;-79
2024/02/25 03:19:13;;;;;;;11.83;11.03;;;2.80;99.90;;;;;;4877828;29;20248;-79
2024/02/25 03:21:42;;;;;;;12.73;11.70;;;2.90;99.90;;;;;;4877253;29;20210;-79
2024/02/25 03:24:09;;;;;;;11.77;10.93;;;2.90;99.90;;;;;;4876350;29;20689;-80
2024/02/25 03:26:36;;;;;;;11.50;10.80;;;2.90;99.90;;;;;;4877255;29;20262;-78
2024/02/25 03:29:05;;;;;;;12.03;11.33;;;2.90;99.90;;;;;;4877906;29;20223;-79
2024/02/25 03:31:33;;;;;;;11.90;11.10;;;2.90;99.90;;;;;;4877076;29;20198;-78
2024/02/25 03:34:00;;;;;;;11.67;10.97;;;2.90;99.90;;;;;;4878963;29;20202;-79
2024/02/25 03:36:27;;;;;;;12.33;11.60;;;2.90;99.90;;;;;;4876841;29;20205;-79
2024/02/25 03:38:55;;;;;;;11.63;10.93;;;3.00;99.90;;;;;;4876743;29;20756;-78
2024/02/25 03:41:22;;;;;;;12.37;11.47;;;3.00;99.90;;;;;;4878377;29;20619;-78
2024/02/25 03:43:49;;;;;;;12.07;11.27;;;3.00;99.90;;;;;;4879554;29;20206;-77
2024/02/25 03:46:15;;;;;;;12.30;11.50;;;3.00;99.90;;;;;;4874391;29;20222;-79
2024/02/25 03:48:44;;;;;;;11.80;11.00;;;3.00;99.90;;;;;;4877703;29;20241;-80
2024/02/25 03:51:12;;;;;;;11.83;11.03;;;3.00;99.90;;;;;;4876378;29;20209;-78
2024/02/25 03:53:39;;;;;;;11.50;10.80;;;3.00;99.90;;;;;;4875716;29;20257;-79
2024/02/25 03:56:07;;;;;;;11.57;10.87;;;3.10;99.90;;;;;;4877767;29;20283;-78
2024/02/25 03:58:33;;;;;;;11.40;10.63;;;3.00;99.90;;;;;;4877183;29;20255;-79
2024/02/25 04:01:00;;;;;;;11.33;10.63;;;3.00;99.90;;;;;;4876038;29;20638;-79
2024/02/25 04:03:27;;;;;;;11.53;10.83;;;3.00;99.90;;;;;;4876439;29;20713;-79
2024/02/25 04:05:56;;;;;;;11.60;10.70;;;3.00;99.90;;;;;;4876448;29;20673;-79
2024/02/25 04:08:24;;;;;;;11.57;10.77;;;3.00;99.90;;;;;;4877706;29;20214;-78
2024/02/25 04:10:51;;;;;;;11.50;10.70;;;3.10;99.90;;;;;;4876308;29;20242;-79
2024/02/25 04:13:34;;;;;;;11.27;10.57;;;3.10;99.90;;;;;;4877343;29;20231;-79
2024/02/25 04:16:04;;;;;;;11.30;10.60;;;3.20;99.90;;;;;;4877628;29;20489;-80
2024/02/25 04:18:31;;;;;;;10.60;10.00;;;3.20;99.90;;;;;;4877437;29;20634;-79
2024/02/25 04:21:00;;;;;;;11.17;10.47;;;3.20;99.90;;;;;;4878194;29;20195;-79
2024/02/25 04:23:27;;;;;;;10.70;10.00;;;3.20;99.90;;;;;;4862082;29;20228;-79
2024/02/25 04:25:53;;;;;;;11.23;10.50;;;3.30;99.90;;;;;;4866354;29;20228;-79
2024/02/25 04:28:20;;;;;;;10.33;9.73;;;3.30;99.90;;;;;;4868641;29;20212;-79
2024/02/25 04:30:47;;;;;;;11.20;10.50;;;3.30;99.90;;;;;;4877182;29;20343;-79
2024/02/25 04:33:14;;;;;;;11.30;10.60;;;3.30;99.90;;;;;;4877689;29;20237;-79
2024/02/25 04:35:41;;;;;;;11.10;10.40;;;3.30;99.90;;;;;;4879633;29;20210;-79
2024/02/25 04:38:12;;;;;;;11.50;10.60;;;3.40;99.90;;;;;;4879453;29;20213;-80
2024/02/25 04:40:39;;;;;;;10.70;10.10;;;3.40;99.90;;;;;;4879353;29;20210;-78
2024/02/25 04:43:06;;;;;;;10.83;10.13;;;3.40;99.90;;;;;;4881652;29;20230;-77
2024/02/25 04:45:32;;;;;;;11.10;10.30;;;3.50;99.90;;;;;;4875384;29;20259;-77
2024/02/25 04:47:59;;;;;;;10.50;9.80;;;3.50;99.90;;;;;;4879730;29;20676;-79
2024/02/25 04:50:28;;;;;;;10.33;9.73;;;3.50;99.90;;;;;;4881116;29;20811;-78
2024/02/25 04:52:55;;;;;;;10.47;9.77;;;3.50;99.90;;;;;;4873527;29;20651;-79
2024/02/25 04:55:23;;;;;;;10.17;9.57;;;3.40;99.90;;;;;;4892860;29;20213;-80
2024/02/25 04:57:50;;;;;;;10.40;9.70;;;3.40;99.90;;;;;;4880290;29;20250;-80
2024/02/25 05:00:17;;;;;;;10.67;9.87;;;3.40;99.90;;;;;;4872197;29;20678;-79
2024/02/25 05:02:44;;;;;;;10.80;10.10;;;3.50;99.90;;;;;;4887566;29;20705;-80
2024/02/25 05:05:11;;;;;;;10.33;9.63;;;3.50;99.90;;;;;;4882749;29;20220;-79
2024/02/25 05:07:38;;;;;;;9.87;9.27;;;3.50;99.90;;;;;;4879369;29;20305;-79
2024/02/25 05:10:06;;;;;;;10.40;9.60;;;3.50;99.90;;;;;;4878853;29;20221;-79
2024/02/25 05:12:34;;;;;;;10.30;9.60;;;3.50;99.90;;;;;;4871769;29;20221;-80
2024/02/25 05:15:00;;;;;;;10.20;9.60;;;3.50;99.90;;;;;;4876916;29;20674;-79
2024/02/25 05:17:27;;;;;;;10.10;9.50;;;3.50;99.90;;;;;;4876839;29;20194;-79
2024/02/25 05:19:54;;;;;;;10.53;9.83;;;3.50;99.90;;;;;;4879790;29;20220;-77
2024/02/25 05:22:21;;;;;;;11.03;10.33;;;3.50;99.90;;;;;;4880503;29;20233;-79
2024/02/25 05:24:47;;;;;;;10.57;9.87;;;3.50;99.90;;;;;;4880264;29;20203;-77
2024/02/25 05:27:14;;;;;;;10.53;9.83;;;3.50;99.90;;;;;;4880648;29;20720;-78
2024/02/25 05:29:43;;;;;;;10.20;9.50;;;3.50;99.90;;;;;;4878887;29;20214;-79
2024/02/25 05:32:10;;;;;;;10.47;9.77;;;3.50;99.90;;;;;;4878428;29;20235;-77
2024/02/25 05:34:37;;;;;;;10.13;9.53;;;3.50;99.90;;;;;;4885243;29;20198;-77
2024/02/25 05:37:04;;;;;;;10.33;9.73;;;3.50;99.90;;;;;;4885697;29;20221;-78
2024/02/25 05:39:31;;;;;;;10.37;9.67;;;3.50;99.90;;;;;;4886335;29;20206;-77
2024/02/25 05:41:58;;;;;;;10.43;9.73;;;3.40;99.90;;;;;;4878946;29;20245;-77
2024/02/25 05:44:25;;;;;;;9.93;9.27;;;3.40;99.90;;;;;;4877742;29;20238;-78
2024/02/25 05:46:53;;;;;;;10.27;9.67;;;3.40;99.90;;;;;;4879904;29;20254;-78
2024/02/25 05:49:20;;;;;;;10.53;9.83;;;3.40;99.90;;;;;;4879470;29;20205;-77
2024/02/25 05:51:47;;;;;;;10.70;10.00;;;3.40;99.90;;;;;;4884681;29;20226;-77
2024/02/25 05:54:14;;;;;;;10.70;10.00;;;3.40;99.90;;;;;;4883960;29;20213;-77
2024/02/25 05:56:40;;;;;;;10.60;9.97;;;3.40;99.90;;;;;;4884449;29;20261;-77
2024/02/25 05:59:08;;;;;;;10.70;10.00;;;3.30;99.90;;;;;;4883360;29;20198;-77
2024/02/25 06:01:35;;;;;;;10.30;9.70;;;3.30;99.90;;;;;;4881490;29;20623;-79
2024/02/25 06:04:05;;;;;;;10.17;9.57;;;3.30;99.90;;;;;;4878882;29;20205;-78
2024/02/25 06:06:32;;;;;;;11.00;10.30;;;3.30;99.90;;;;;;4878823;29;20253;-78
2024/02/25 06:08:59;;;;;;;10.60;9.90;;;3.30;99.90;;;;;;4879884;29;20205;-78
2024/02/25 06:11:26;;;;;;;10.90;10.10;;;3.30;99.90;;;;;;4877285;29;20225;-78
2024/02/25 06:13:52;;;;;;;10.40;9.70;;;3.40;99.90;;;;;;4883799;29;20684;-78
2024/02/25 06:16:19;;;;;;;11.10;10.40;;;3.40;99.90;;;;;;4878914;29;20233;-78
2024/02/25 06:18:47;;;;;;;10.90;10.20;;;3.40;99.90;;;;;;4878202;29;20202;-79
2024/02/25 06:21:16;;;;;;;10.60;10.00;;;3.40;99.90;;;;;;4878762;29;20204;-79
2024/02/25 06:23:42;;;;;;;10.87;10.13;;;3.40;99.90;;;;;;4877643;29;20221;-78
2024/02/25 06:26:10;;;;;;;11.03;10.33;;;3.40;99.90;;;;;;4877677;29;20199;-79
2024/02/25 06:28:37;;;;;;;10.60;9.90;;;3.50;99.90;;;;;;4877733;29;20209;-78
2024/02/25 06:31:04;;;;;;;10.80;10.10;;;3.50;99.90;;;;;;4880116;29;20230;-78
2024/02/25 06:33:31;;;;;;;10.43;9.80;;;3.50;99.90;;;;;;4879830;29;20332;-80
2024/02/25 06:35:58;;;;;;;10.93;10.23;;;3.50;99.90;;;;;;4878213;29;20220;-79
2024/02/25 06:38:26;;;;;;;11.33;10.53;;;3.60;99.90;;;;;;4877712;29;20211;-79
2024/02/25 06:40:53;;;;;;;10.53;9.90;;;3.60;99.90;;;;;;4879006;29;20232;-77
2024/02/25 06:43:20;;;;;;;11.00;10.17;;;3.60;99.90;;;;;;4879045;29;20645;-80
2024/02/25 06:45:46;;;;;;;11.60;10.80;;;3.70;99.90;;;;;;4877524;29;20204;-79
2024/02/25 06:48:13;;;;;;;10.40;9.80;;;3.70;99.90;;;;;;4877587;29;20210;-78
2024/02/25 06:50:40;;;;;;;10.27;9.57;;;3.70;99.90;;;;;;4873920;29;20252;-79
2024/02/25 06:53:07;;;;;;;10.70;10.00;;;3.70;99.90;;;;;;4877789;29;20221;-79
2024/02/25 06:55:35;;;;;;;10.57;9.97;;;3.80;99.90;;;;;;4877338;29;20213;-79
2024/02/25 06:58:02;;;;;;;10.60;10.00;;;4.00;99.90;;;;;;4878695;29;20238;-80
2024/02/25 07:00:29;;;;;;;10.67;10.00;;;4.40;99.90;;;;;;4877619;29;20206;-79
2024/02/25 07:02:56;;;;;;;10.40;9.50;;;4.80;99.90;;;;;;4877504;29;20225;-80
2024/02/25 07:05:23;;;;;;;10.50;9.90;;;5.20;99.90;;;;;;4879006;29;20237;-77
2024/02/25 07:07:50;;;;;;;10.83;10.13;;;5.70;99.90;;;;;;4881341;29;20270;-79
2024/02/25 07:10:17;;;;;;;10.20;9.60;;;6.10;99.90;;;;;;4879309;29;20225;-76
2024/02/25 07:12:45;;;;;;;10.43;9.83;;;6.30;99.90;;;;;;4875375;29;20232;-80
2024/02/25 07:15:12;;;;;;;10.90;10.20;;;6.30;99.90;;;;;;4877702;29;20219;-80
2024/02/25 07:17:40;;;;;;;10.90;10.30;;;6.30;99.90;;;;;;4877186;29;20216;-79
2024/02/25 07:20:08;;;;;;;10.83;10.13;;;6.50;99.90;;;;;;4876416;29;20219;-78
2024/02/25 07:22:35;;;;;;;10.97;10.27;;;6.60;99.90;;;;;;4877988;29;20228;-79
2024/02/25 07:25:02;;;;;;;10.57;9.97;;;6.70;99.90;;;;;;4878586;29;20691;-79
2024/02/25 07:27:28;;;;;;;10.77;10.07;;;6.70;99.90;;;;;;4878293;29;20643;-79
2024/02/25 07:29:57;;;;;;;10.70;10.10;;;6.80;99.90;;;;;;4876934;29;20207;-79
2024/02/25 07:32:23;;;;;;;10.40;9.70;;;7.00;99.90;;;;;;4877970;29;20315;-79
2024/02/25 07:34:50;;;;;;;10.70;10.00;;;7.10;99.90;;;;;;4874224;29;20197;-79
2024/02/25 07:37:17;;;;;;;11.33;10.53;;;7.20;99.90;;;;;;4878051;29;20270;-79
2024/02/25 07:39:44;;;;;;;10.67;10.00;;;7.20;99.90;;;;;;4876877;29;20578;-79
2024/02/25 07:42:11;;;;;;;11.37;10.67;;;7.10;99.90;;;;;;4877649;29;20248;-79
2024/02/25 07:44:38;;;;;;;12.07;11.17;;;7.10;99.90;;;;;;4878203;29;20209;-79
2024/02/25 07:47:06;;;;;;;12.37;11.47;;;7.30;99.90;;;;;;4876663;29;20225;-79
2024/02/25 07:49:33;;;;;;;12.57;11.60;;;7.40;99.90;;;;;;4871660;29;21425;-77
2024/02/25 07:52:00;;;;;;;12.10;11.27;;;7.80;99.90;;;;;;4871966;29;20259;-78
2024/02/25 07:54:26;;;;;;;11.20;10.40;;;8.30;99.90;;;;;;4877925;29;20487;-78
2024/02/25 07:56:53;;;;;;;11.10;10.40;;;8.50;99.90;;;;;;4878259;29;20197;-77
2024/02/25 07:59:20;;;;;;;10.60;9.80;;;8.40;99.90;;;;;;4885816;29;20197;-77
2024/02/25 08:01:47;;;;;;;11.00;10.20;;;8.10;99.90;;;;;;4888467;29;20214;-77
2024/02/25 08:04:15;;;;;;;11.00;10.30;;;7.80;99.90;;;;;;4885533;29;20206;-77
2024/02/25 08:06:42;;;;;;;11.10;10.30;;;7.50;99.90;;;;;;4889552;29;20205;-77
2024/02/25 08:09:09;;;;;;;11.27;10.47;;;7.20;99.90;;;;;;4893135;29;20212;-77
2024/02/25 08:11:36;;;;;;;10.83;10.10;;;7.00;99.90;;;;;;4892569;29;20217;-79
2024/02/25 08:14:03;;;;;;;11.07;10.27;;;6.80;99.90;;;;;;4880591;29;20205;-81
2024/02/25 08:16:31;;;;;;;10.40;9.70;;;6.70;99.90;;;;;;4875204;29;20210;-79
2024/02/25 08:18:58;;;;;;;10.17;9.53;;;6.60;99.90;;;;;;4875776;29;20249;-78
2024/02/25 08:21:26;;;;;;;10.50;9.70;;;6.60;99.90;;;;;;4892445;29;20676;-77
2024/02/25 08:23:53;;;;;;;10.17;9.57;;;6.50;99.90;;;;;;4886453;29;20193;-77
2024/02/25 08:26:20;;;;;;;10.23;9.50;;;6.40;99.90;;;;;;4883616;29;20248;-77
2024/02/25 08:28:47;;;;;;;9.83;9.23;;;6.30;99.90;;;;;;4871152;29;20201;-77
2024/02/25 08:31:14;;;;;;;10.10;9.40;;;6.40;99.90;;;;;;4880094;29;20228;-77
2024/02/25 08:33:40;;;;;;;9.80;9.10;;;6.40;99.90;;;;;;4880835;29;20240;-78
2024/02/25 08:36:07;;;;;;;9.90;9.30;;;6.40;99.90;;;;;;4881864;29;20202;-78
2024/02/25 08:38:39;;;;;;;9.60;9.00;;;6.50;99.90;;;;;;4870062;29;20232;-77
2024/02/25 08:41:06;;;;;;;10.00;9.40;;;6.50;99.90;;;;;;4880023;29;20245;-78
2024/02/25 08:43:33;;;;;;;9.53;8.93;;;6.60;99.90;;;;;;4880985;29;20221;-78
2024/02/25 08:46:00;;;;;;;9.80;9.10;;;6.60;99.90;;;;;;4881031;29;20202;-78
2024/02/25 08:48:27;;;;;;;9.90;9.20;;;6.60;99.90;;;;;;4880695;29;20284;-78
2024/02/25 08:50:53;;;;;;;9.80;9.20;;;6.60;99.90;;;;;;4879837;29;20225;-78
2024/02/25 08:53:20;;;;;;;9.70;9.10;;;6.70;99.90;;;;;;4880249;29;20248;-78
2024/02/25 08:55:49;;;;;;;10.00;9.30;;;6.70;99.90;;;;;;4879636;29;20306;-78
2024/02/25 08:58:15;;;;;;;10.07;9.37;;;6.90;99.90;;;;;;4880553;29;20202;-78
2024/02/25 09:00:44;;;;;;;9.43;8.83;;;7.00;99.90;;;;;;4886596;29;20256;-78
2024/02/25 09:03:11;;;;;;;9.60;9.00;;;7.20;99.90;;;;;;4879963;29;20232;-78
2024/02/25 09:05:38;;;;;;;10.23;9.53;;;7.30;99.90;;;;;;4880143;29;20638;-78
2024/02/25 09:08:05;;;;;;;9.80;9.20;;;7.50;99.90;;;;;;4880807;29;20670;-78
2024/02/25 09:10:36;;;;;;;10.00;9.30;;;7.60;99.90;;;;;;4880345;29;20262;-79
2024/02/25 09:13:04;;;;;;;10.07;9.37;;;7.70;99.90;;;;;;4880624;29;20324;-81
2024/02/25 09:15:32;;;;;;;9.50;8.90;;;7.90;99.90;;;;;;4878066;29;20213;-80
2024/02/25 09:18:02;;;;;;;9.77;9.07;;;7.90;99.90;;;;;;4880982;29;20205;-79
2024/02/25 09:20:33;;;;;;;10.33;9.50;;;8.00;99.90;;;;;;4879879;29;20212;-78
2024/02/25 09:23:02;;;;;;;9.77;9.07;;;8.00;99.90;;;;;;4881824;29;20228;-78
2024/02/25 09:25:33;;;;;;;9.80;9.20;;;8.10;99.90;;;;;;4880140;29;20288;-77
2024/02/25 09:28:00;;;;;;;9.57;8.97;;;8.30;99.90;;;;;;4881713;29;20631;-78
2024/02/25 09:30:28;;;;;;;9.43;8.83;;;8.40;99.90;;;;;;4879519;29;20729;-78
2024/02/25 09:32:55;;;;;;;9.50;8.90;;;8.40;99.90;;;;;;4887957;29;20656;-78
2024/02/25 09:35:22;;;;;;;9.20;8.60;;;8.60;99.90;;;;;;4880926;29;20314;-78
2024/02/25 09:37:49;;;;;;;8.70;8.10;;;8.70;99.90;;;;;;4880655;29;20732;-78
2024/02/25 09:40:16;;;;;;;8.30;7.80;;;8.60;99.90;;;;;;4879106;29;20222;-79
2024/02/25 09:42:45;;;;;;;8.40;7.90;;;8.60;99.90;;;;;;4878584;29;20217;-78
2024/02/25 09:45:20;;;;;;;8.73;8.17;;;8.70;99.90;;;;;;4880166;29;20575;-79
2024/02/25 09:47:50;;;;;;;8.13;7.63;;;8.70;99.90;;;;;;4879440;29;20248;-78
2024/02/25 09:50:18;;;;;;;8.87;8.27;;;8.70;99.90;;;;;;4878381;29;20209;-78
2024/02/25 09:52:47;;;;;;;8.50;7.90;;;8.80;99.90;;;;;;4880646;29;20224;-78
2024/02/25 09:55:14;;;;;;;8.50;7.90;;;8.80;99.90;;;;;;4879810;29;20658;-78
2024/02/25 09:57:41;;;;;;;8.60;8.07;;;8.90;99.90;;;;;;4879406;29;20217;-79
2024/02/25 10:00:09;;;;;;;8.53;8.03;;;8.80;99.90;;;;;;4880154;29;20253;-78
2024/02/25 10:02:37;;;;;;;8.73;8.13;;;8.70;99.90;;;;;;4880255;29;20301;-78
2024/02/25 10:05:06;;;;;;;8.43;7.93;;;8.70;99.90;;;;;;4878909;29;20258;-79
2024/02/25 10:07:33;;;;;;;8.80;8.00;;;8.70;99.90;;;;;;4875103;29;20278;-79
2024/02/25 10:10:00;;;;;;;8.40;7.80;;;8.80;99.90;;;;;;4877275;29;20257;-79
2024/02/25 10:12:27;;;;;;;8.33;7.73;;;9.00;99.90;;;;;;4878849;29;20277;-80
2024/02/25 10:14:54;;;;;;;9.50;8.80;;;9.00;99.90;;;;;;4872830;29;20209;-80
2024/02/25 10:17:23;;;;;;;9.20;8.50;;;9.00;99.90;;;;;;4877412;29;20292;-79
2024/02/25 10:19:55;;;;;;;9.27;8.57;;;9.10;99.90;;;;;;4877969;29;20210;-79
2024/02/25 10:22:25;;;;;;;8.87;8.17;;;9.40;99.90;;;;;;4879182;29;20213;-80
2024/02/25 10:24:52;;;;;;;9.00;8.40;;;9.70;99.90;;;;;;4879218;29;20202;-79
2024/02/25 10:27:22;;;;;;;8.80;8.20;;;9.90;99.90;;;;;;4877434;29;20201;-79
2024/02/25 10:29:53;;;;;;;8.70;8.10;;;10.10;99.90;;;;;;4878148;29;20211;-80
2024/02/25 10:32:24;;;;;;;10.00;9.27;;;10.10;99.90;;;;;;4870224;29;20291;-79
2024/02/25 10:34:52;;;;;;;2.70;2.50;;;10.10;99.90;;;;;;4865241;29;20686;-79
2024/02/25 10:37:21;;;;;;;6.97;6.50;;;10.20;99.90;;;;;;4865204;29;20212;-79
2024/02/25 10:39:52;;;;;;;9.00;8.50;;;10.30;99.90;;;;;;4875767;29;20238;-80
2024/02/25 10:42:23;;;;;;;7.37;6.87;;;10.20;99.90;;;;;;4878128;29;20222;-79
2024/02/25 10:44:52;;;;;;;4.73;4.37;;;10.20;99.90;;;;;;4875730;29;20284;-80
2024/02/25 10:47:23;;;;;;;4.40;4.10;;;10.20;99.90;;;;;;4876885;29;20263;-79
2024/02/25 10:49:51;;;;;;;2.30;2.20;;;10.10;99.90;;;;;;4878337;29;20210;-80
2024/02/25 10:52:19;;;;;;;7.37;6.97;;;9.90;99.90;;;;;;4877440;29;20234;-80
2024/02/25 10:54:49;;;;;;;8.63;8.10;;;9.90;99.90;;;;;;4878408;29;20204;-80
2024/02/25 10:57:17;;;;;;;5.00;4.60;;;10.00;99.90;;;;;;4878506;29;20198;-80
2024/02/25 10:59:45;;;;;;;8.77;8.23;;;10.10;99.90;;;;;;4876795;29;20202;-79
2024/02/25 11:02:13;;;;;;;4.30;3.23;;;10.10;99.90;;;;;;4878707;29;20766;-80
2024/02/25 11:04:40;;;;;;;9.40;8.83;;;10.10;99.90;;;;;;4875852;29;20207;-79
2024/02/25 11:07:08;;;;;;;8.30;7.80;;;10.20;99.90;;;;;;4877679;29;20662;-80
2024/02/25 11:09:35;;;;;;;8.50;8.00;;;10.20;99.90;;;;;;4877743;29;20240;-80
2024/02/25 11:12:20;;;;;;;8.50;7.90;;;10.20;99.90;;;;;;4877718;29;20222;-79
2024/02/25 11:14:53;;;;;;;8.53;7.93;;;10.30;99.90;;;;;;4878224;29;20242;-79
2024/02/25 11:17:24;;;;;;;8.70;8.20;;;10.30;99.90;;;;;;4873062;29;20457;-80
2024/02/25 11:20:06;;;;;;;9.13;8.53;;;10.40;99.90;;;;;;4874169;29;20232;-77
2024/02/25 11:22:41;;;;;;;9.90;9.30;;;10.60;99.90;;;;;;4886490;29;20689;-77
2024/02/25 11:25:35;;;;;;;3.43;3.13;;;10.80;99.90;;;;;;4876083;29;20670;-76
2024/02/25 11:28:04;;;;;;;8.60;8.10;;;10.90;99.90;;;;;;4879621;29;20230;-79
2024/02/25 11:30:36;;;;;;;9.13;8.50;;;10.90;99.90;;;;;;4878893;29;20206;-80
2024/02/25 11:33:23;;;;;;;2.80;2.60;;;10.90;99.90;;;;;;4879474;29;20220;-80
2024/02/25 11:35:50;;;;;;;2.67;2.47;;;10.90;99.90;;;;;;4878867;29;20199;-79
2024/02/25 11:38:21;;;;;;;3.07;2.87;;;10.90;99.90;;;;;;4878466;29;20231;-80
2024/02/25 11:40:48;;;;;;;2.63;2.43;;;10.90;99.90;;;;;;4877199;29;20199;-79
2024/02/25 11:43:17;;;;;;;2.70;2.50;;;10.80;99.90;;;;;;4880959;29;20246;-78
2024/02/25 11:45:44;;;;;;;2.50;2.30;;;10.80;99.90;;;;;;4884817;29;20215;-78
2024/02/25 11:48:11;;;;;;;7.93;7.43;;;10.90;99.90;;;;;;4884811;29;20691;-77
2024/02/25 11:50:38;;;;;;;10.07;9.47;;;10.90;99.90;;;;;;4885202;29;20207;-77
2024/02/25 11:53:06;;;;;;;4.83;4.53;;;10.90;99.90;;;;;;4884818;29;20604;-79
2024/02/25 11:55:33;;;;;;;5.60;5.30;;;11.00;99.90;;;;;;4882801;29;20212;-78
2024/02/25 11:58:00;;;;;;;2.67;2.00;;;11.00;99.90;;;;;;4883213;29;20209;-80
2024/02/25 12:00:29;;;;;;;8.87;8.37;;;11.00;99.90;;;;;;4882936;29;20240;-80
2024/02/25 12:02:56;;;;;;;10.30;9.70;;;10.90;99.90;;;;;;4882193;29;20228;-79
2024/02/25 12:05:23;;;;;;;3.80;3.60;;;10.90;99.90;;;;;;4882173;29;20210;-76
2024/02/25 12:07:57;;;;;;;7.63;7.23;;;11.00;99.90;;;;;;4877238;29;20272;-77
2024/02/25 12:10:24;;;;;;;2.20;2.10;;;11.00;99.90;;;;;;4882555;29;20299;-80
2024/02/25 12:12:52;;;;;;;5.60;5.20;;;11.10;99.90;;;;;;4883872;29;20258;-77
2024/02/25 12:15:18;;;;;;;9.73;9.20;;;11.00;99.90;;;;;;4882886;29;20200;-80
2024/02/25 12:17:47;;;;;;;8.20;7.70;;;10.90;99.90;;;;;;4882685;29;20208;-79
2024/02/25 12:20:17;;;;;;;7.70;7.30;;;10.90;99.90;;;;;;4880326;29;20202;-77
2024/02/25 12:22:45;;;;;;;8.07;7.60;;;10.90;99.90;;;;;;4881447;29;20242;-76
2024/02/25 12:25:16;;;;;;;7.60;7.20;;;10.90;99.90;;;;;;4880423;29;20267;-78
2024/02/25 12:27:43;;;;;;;7.50;7.00;;;11.00;99.90;;;;;;4882201;29;20254;-77
2024/02/25 12:30:12;;;;;;;7.50;6.90;;;11.00;99.90;;;;;;4872740;29;20207;-78
2024/02/25 12:32:39;;;;;;;7.17;6.77;;;11.00;99.90;;;;;;4881012;29;20240;-78
2024/02/25 12:35:07;;;;;;;7.40;7.00;;;11.00;99.90;;;;;;4883377;29;20208;-79
2024/02/25 12:37:34;;;;;;;2.00;1.90;;;11.10;99.90;;;;;;4885087;29;20203;-77
2024/02/25 12:40:04;;;;;;;3.80;3.60;;;11.30;99.90;;;;;;4884257;29;20214;-79
2024/02/25 12:42:32;;;;;;;6.60;6.30;;;11.40;99.90;;;;;;4877836;29;20228;-79
2024/02/25 12:44:59;;;;;;;6.43;6.03;;;11.70;99.90;;;;;;4881259;29;20213;-79
2024/02/25 12:47:26;;;;;;;5.23;5.03;;;11.80;99.90;;;;;;4883867;29;20205;-79